sensor_id;sensor_type;location;lat;lon;timestamp;P1;durP1;ratioP1;P2;durP2;ratioP2
9906;SDS011;4992;51.628;6.664;2023-07-20T00:00:31;5.70;;;4.07;;
9906;SDS011;4992;51.628;6.664;2023-07-20T00:03:10;7.45;;;4.72;;
9906;SDS011;4992;51.628;6.664;2023-07-20T00:05:42;6.35;;;4.32;;
9906;SDS011;4992;51.628;6.664;2023-07-20T00:08:09;6.95;;;4.75;;
9906;SDS011;4992;51.628;6.664;2023-07-20T00:10:35;6.93;;;3.95;;
9906;SDS011;4992;51.628;6.664;2023-07-20T00:13:00;5.85;;;4.03;;
9906;SDS011;4992;51.628;6.664;2023-07-20T00:15:26;5.45;;;3.53;;
9906;SDS011;4992;51.628;6.664;2023-07-20T00:17:52;7.30;;;4.53;;
9906;SDS011;4992;51.628;6.664;2023-07-20T00:20:18;6.15;;;3.92;;
9906;SDS011;4992;51.628;6.664;2023-07-20T00:22:44;7.10;;;4.57;;
9906;SDS011;4992;51.628;6.664;2023-07-20T00:25:10;7.57;;;3.80;;
9906;SDS011;4992;51.628;6.664;2023-07-20T00:30:12;6.30;;;4.05;;
9906;SDS011;4992;51.628;6.664;2023-07-20T00:32:38;5.82;;;4.22;;
9906;SDS011;4992;51.628;6.664;2023-07-20T00:35:04;5.78;;;4.70;;
9906;SDS011;4992;51.628;6.664;2023-07-20T00:37:30;5.80;;;4.03;;
9906;SDS011;4992;51.628;6.664;2023-07-20T00:39:57;7.78;;;4.10;;
9906;SDS011;4992;51.628;6.664;2023-07-20T00:42:23;5.18;;;4.50;;
9906;SDS011;4992;51.628;6.664;2023-07-20T00:44:49;7.10;;;4.78;;
9906;SDS011;4992;51.628;6.664;2023-07-20T00:47:15;5.38;;;4.60;;
9906;SDS011;4992;51.628;6.664;2023-07-20T00:49:41;5.60;;;5.03;;
9906;SDS011;4992;51.628;6.664;2023-07-20T00:52:08;6.20;;;4.95;;
9906;SDS011;4992;51.628;6.664;2023-07-20T00:54:36;6.10;;;5.00;;
9906;SDS011;4992;51.628;6.664;2023-07-20T00:57:03;5.85;;;5.30;;
9906;SDS011;4992;51.628;6.664;2023-07-20T00:59:30;6.13;;;5.18;;
9906;SDS011;4992;51.628;6.664;2023-07-20T01:01:56;5.63;;;5.13;;
9906;SDS011;4992;51.628;6.664;2023-07-20T01:04:22;7.53;;;6.15;;
9906;SDS011;4992;51.628;6.664;2023-07-20T01:06:50;6.60;;;5.63;;
9906;SDS011;4992;51.628;6.664;2023-07-20T01:14:29;8.60;;;6.18;;
9906;SDS011;4992;51.628;6.664;2023-07-20T01:16:57;7.07;;;6.13;;
9906;SDS011;4992;51.628;6.664;2023-07-20T01:19:23;9.63;;;6.50;;
9906;SDS011;4992;51.628;6.664;2023-07-20T01:24:47;8.32;;;6.43;;
9906;SDS011;4992;51.628;6.664;2023-07-20T01:27:22;7.35;;;6.05;;
9906;SDS011;4992;51.628;6.664;2023-07-20T01:32:33;9.02;;;6.45;;
9906;SDS011;4992;51.628;6.664;2023-07-20T01:35:00;6.28;;;5.68;;
9906;SDS011;4992;51.628;6.664;2023-07-20T01:37:28;8.88;;;6.40;;
9906;SDS011;4992;51.628;6.664;2023-07-20T01:39:56;6.80;;;6.10;;
9906;SDS011;4992;51.628;6.664;2023-07-20T01:42:22;10.88;;;5.90;;
9906;SDS011;4992;51.628;6.664;2023-07-20T01:44:52;7.57;;;6.03;;
9906;SDS011;4992;51.628;6.664;2023-07-20T01:47:18;7.60;;;6.90;;
9906;SDS011;4992;51.628;6.664;2023-07-20T01:49:44;8.48;;;7.68;;
9906;SDS011;4992;51.628;6.664;2023-07-20T01:52:10;9.00;;;8.10;;
9906;SDS011;4992;51.628;6.664;2023-07-20T01:54:36;10.02;;;8.18;;
9906;SDS011;4992;51.628;6.664;2023-07-20T01:57:02;10.50;;;8.57;;
9906;SDS011;4992;51.628;6.664;2023-07-20T01:59:29;10.80;;;8.65;;
9906;SDS011;4992;51.628;6.664;2023-07-20T02:01:55;12.85;;;10.68;;
9906;SDS011;4992;51.628;6.664;2023-07-20T02:04:21;13.45;;;10.02;;
9906;SDS011;4992;51.628;6.664;2023-07-20T02:06:46;11.30;;;10.20;;
9906;SDS011;4992;51.628;6.664;2023-07-20T02:09:12;10.57;;;9.52;;
9906;SDS011;4992;51.628;6.664;2023-07-20T02:11:38;10.98;;;9.93;;
9906;SDS011;4992;51.628;6.664;2023-07-20T02:14:04;12.77;;;9.88;;
9906;SDS011;4992;51.628;6.664;2023-07-20T02:16:30;11.75;;;10.43;;
9906;SDS011;4992;51.628;6.664;2023-07-20T02:18:57;10.95;;;9.80;;
9906;SDS011;4992;51.628;6.664;2023-07-20T02:21:23;11.77;;;10.20;;
9906;SDS011;4992;51.628;6.664;2023-07-20T02:23:49;13.18;;;11.77;;
9906;SDS011;4992;51.628;6.664;2023-07-20T02:26:15;12.75;;;10.57;;
9906;SDS011;4992;51.628;6.664;2023-07-20T02:28:41;12.55;;;10.32;;
9906;SDS011;4992;51.628;6.664;2023-07-20T02:31:07;13.43;;;12.02;;
9906;SDS011;4992;51.628;6.664;2023-07-20T02:33:33;16.35;;;12.10;;
9906;SDS011;4992;51.628;6.664;2023-07-20T02:35:59;13.90;;;11.60;;
9906;SDS011;4992;51.628;6.664;2023-07-20T02:38:25;15.43;;;12.00;;
9906;SDS011;4992;51.628;6.664;2023-07-20T02:40:51;14.15;;;12.70;;
9906;SDS011;4992;51.628;6.664;2023-07-20T02:43:17;13.40;;;11.45;;
9906;SDS011;4992;51.628;6.664;2023-07-20T02:45:43;14.60;;;12.07;;
9906;SDS011;4992;51.628;6.664;2023-07-20T02:48:09;15.82;;;11.98;;
9906;SDS011;4992;51.628;6.664;2023-07-20T02:50:35;19.27;;;13.10;;
9906;SDS011;4992;51.628;6.664;2023-07-20T02:53:01;14.15;;;12.32;;
9906;SDS011;4992;51.628;6.664;2023-07-20T02:55:27;14.32;;;12.88;;
9906;SDS011;4992;51.628;6.664;2023-07-20T02:57:53;16.10;;;13.15;;
9906;SDS011;4992;51.628;6.664;2023-07-20T03:00:19;17.05;;;14.10;;
9906;SDS011;4992;51.628;6.664;2023-07-20T03:02:48;17.30;;;14.20;;
9906;SDS011;4992;51.628;6.664;2023-07-20T03:05:14;14.77;;;13.20;;
9906;SDS011;4992;51.628;6.664;2023-07-20T03:07:41;14.30;;;12.80;;
9906;SDS011;4992;51.628;6.664;2023-07-20T03:10:08;15.38;;;13.35;;
9906;SDS011;4992;51.628;6.664;2023-07-20T03:12:34;17.08;;;14.15;;
9906;SDS011;4992;51.628;6.664;2023-07-20T03:15:01;13.77;;;12.00;;
9906;SDS011;4992;51.628;6.664;2023-07-20T03:17:27;15.20;;;12.15;;
9906;SDS011;4992;51.628;6.664;2023-07-20T03:19:53;13.93;;;11.43;;
9906;SDS011;4992;51.628;6.664;2023-07-20T03:22:19;12.70;;;11.48;;
9906;SDS011;4992;51.628;6.664;2023-07-20T03:24:46;11.35;;;10.25;;
9906;SDS011;4992;51.628;6.664;2023-07-20T03:27:12;11.95;;;10.40;;
9906;SDS011;4992;51.628;6.664;2023-07-20T03:29:38;11.43;;;10.32;;
9906;SDS011;4992;51.628;6.664;2023-07-20T03:32:05;11.07;;;9.85;;
9906;SDS011;4992;51.628;6.664;2023-07-20T03:34:31;11.38;;;9.00;;
9906;SDS011;4992;51.628;6.664;2023-07-20T03:36:57;10.75;;;9.05;;
9906;SDS011;4992;51.628;6.664;2023-07-20T03:39:24;9.23;;;8.38;;
9906;SDS011;4992;51.628;6.664;2023-07-20T03:41:50;10.15;;;8.73;;
9906;SDS011;4992;51.628;6.664;2023-07-20T03:44:16;9.13;;;8.20;;
9906;SDS011;4992;51.628;6.664;2023-07-20T03:46:42;11.90;;;9.45;;
9906;SDS011;4992;51.628;6.664;2023-07-20T03:49:08;11.70;;;8.95;;
9906;SDS011;4992;51.628;6.664;2023-07-20T03:51:35;9.10;;;8.05;;
9906;SDS011;4992;51.628;6.664;2023-07-20T03:54:01;8.90;;;8.10;;
9906;SDS011;4992;51.628;6.664;2023-07-20T03:56:27;14.05;;;8.50;;
9906;SDS011;4992;51.628;6.664;2023-07-20T03:58:53;9.20;;;8.30;;
9906;SDS011;4992;51.628;6.664;2023-07-20T04:01:19;8.95;;;8.02;;
9906;SDS011;4992;51.628;6.664;2023-07-20T04:03:45;9.60;;;7.82;;
9906;SDS011;4992;51.628;6.664;2023-07-20T04:06:11;8.60;;;7.85;;
9906;SDS011;4992;51.628;6.664;2023-07-20T04:08:39;10.68;;;8.80;;
9906;SDS011;4992;51.628;6.664;2023-07-20T04:11:05;8.70;;;8.00;;
9906;SDS011;4992;51.628;6.664;2023-07-20T04:13:31;9.52;;;7.78;;
9906;SDS011;4992;51.628;6.664;2023-07-20T04:15:59;8.13;;;7.32;;
9906;SDS011;4992;51.628;6.664;2023-07-20T04:18:25;8.40;;;7.63;;
9906;SDS011;4992;51.628;6.664;2023-07-20T04:20:51;10.30;;;7.65;;
9906;SDS011;4992;51.628;6.664;2023-07-20T04:23:17;7.57;;;6.88;;
9906;SDS011;4992;51.628;6.664;2023-07-20T04:25:43;7.05;;;6.35;;
9906;SDS011;4992;51.628;6.664;2023-07-20T04:28:09;7.07;;;6.40;;
9906;SDS011;4992;51.628;6.664;2023-07-20T04:30:36;7.60;;;6.50;;
9906;SDS011;4992;51.628;6.664;2023-07-20T04:33:02;7.22;;;6.45;;
9906;SDS011;4992;51.628;6.664;2023-07-20T04:38:13;6.78;;;6.20;;
9906;SDS011;4992;51.628;6.664;2023-07-20T04:40:45;7.00;;;6.40;;
9906;SDS011;4992;51.628;6.664;2023-07-20T04:43:12;8.25;;;5.88;;
9906;SDS011;4992;51.628;6.664;2023-07-20T04:45:38;5.95;;;5.47;;
9906;SDS011;4992;51.628;6.664;2023-07-20T04:48:06;6.13;;;5.53;;
9906;SDS011;4992;51.628;6.664;2023-07-20T04:50:32;5.60;;;4.93;;
9906;SDS011;4992;51.628;6.664;2023-07-20T04:52:58;4.93;;;4.53;;
9906;SDS011;4992;51.628;6.664;2023-07-20T04:55:25;4.60;;;4.20;;
9906;SDS011;4992;51.628;6.664;2023-07-20T04:57:51;4.28;;;3.75;;
9906;SDS011;4992;51.628;6.664;2023-07-20T05:00:17;4.20;;;3.90;;
9906;SDS011;4992;51.628;6.664;2023-07-20T05:02:44;4.75;;;3.95;;
9906;SDS011;4992;51.628;6.664;2023-07-20T05:05:10;4.70;;;4.07;;
9906;SDS011;4992;51.628;6.664;2023-07-20T05:07:36;4.82;;;4.40;;
9906;SDS011;4992;51.628;6.664;2023-07-20T05:10:02;4.63;;;4.15;;
9906;SDS011;4992;51.628;6.664;2023-07-20T05:12:28;4.93;;;4.10;;
9906;SDS011;4992;51.628;6.664;2023-07-20T05:14:54;4.57;;;4.18;;
9906;SDS011;4992;51.628;6.664;2023-07-20T05:17:19;4.47;;;4.10;;
9906;SDS011;4992;51.628;6.664;2023-07-20T05:19:45;4.45;;;4.05;;
9906;SDS011;4992;51.628;6.664;2023-07-20T05:22:13;14.57;;;10.35;;
9906;SDS011;4992;51.628;6.664;2023-07-20T05:24:39;7.07;;;5.03;;
9906;SDS011;4992;51.628;6.664;2023-07-20T05:27:05;5.32;;;4.43;;
9906;SDS011;4992;51.628;6.664;2023-07-20T05:29:31;4.40;;;4.10;;
9906;SDS011;4992;51.628;6.664;2023-07-20T05:31:58;4.63;;;4.22;;
9906;SDS011;4992;51.628;6.664;2023-07-20T05:34:24;4.50;;;4.10;;
9906;SDS011;4992;51.628;6.664;2023-07-20T05:36:49;5.25;;;4.75;;
9906;SDS011;4992;51.628;6.664;2023-07-20T05:39:16;4.30;;;4.00;;
9906;SDS011;4992;51.628;6.664;2023-07-20T05:41:43;4.55;;;4.15;;
9906;SDS011;4992;51.628;6.664;2023-07-20T05:44:09;4.55;;;4.15;;
9906;SDS011;4992;51.628;6.664;2023-07-20T05:46:35;4.50;;;4.10;;
9906;SDS011;4992;51.628;6.664;2023-07-20T05:49:01;3.75;;;3.45;;
9906;SDS011;4992;51.628;6.664;2023-07-20T05:51:27;4.28;;;3.83;;
9906;SDS011;4992;51.628;6.664;2023-07-20T05:53:53;4.03;;;3.45;;
9906;SDS011;4992;51.628;6.664;2023-07-20T05:56:19;4.18;;;3.78;;
9906;SDS011;4992;51.628;6.664;2023-07-20T05:58:45;4.18;;;3.88;;
9906;SDS011;4992;51.628;6.664;2023-07-20T06:01:11;4.60;;;3.90;;
9906;SDS011;4992;51.628;6.664;2023-07-20T06:03:37;3.97;;;3.67;;
9906;SDS011;4992;51.628;6.664;2023-07-20T06:06:03;3.63;;;3.33;;
9906;SDS011;4992;51.628;6.664;2023-07-20T06:08:30;3.85;;;3.55;;
9906;SDS011;4992;51.628;6.664;2023-07-20T06:10:57;3.65;;;3.35;;
9906;SDS011;4992;51.628;6.664;2023-07-20T06:13:22;3.55;;;3.25;;
9906;SDS011;4992;51.628;6.664;2023-07-20T06:15:50;3.90;;;3.17;;
9906;SDS011;4992;51.628;6.664;2023-07-20T06:18:16;3.15;;;2.95;;
9906;SDS011;4992;51.628;6.664;2023-07-20T06:20:41;3.00;;;2.78;;
9906;SDS011;4992;51.628;6.664;2023-07-20T06:23:08;3.30;;;3.10;;
9906;SDS011;4992;51.628;6.664;2023-07-20T06:25:34;3.05;;;2.75;;
9906;SDS011;4992;51.628;6.664;2023-07-20T06:28:00;3.20;;;3.00;;
9906;SDS011;4992;51.628;6.664;2023-07-20T06:30:26;2.97;;;2.33;;
9906;SDS011;4992;51.628;6.664;2023-07-20T06:32:52;2.38;;;2.28;;
9906;SDS011;4992;51.628;6.664;2023-07-20T06:35:18;3.65;;;2.70;;
9906;SDS011;4992;51.628;6.664;2023-07-20T06:37:44;2.60;;;2.20;;
9906;SDS011;4992;51.628;6.664;2023-07-20T06:40:10;2.55;;;2.30;;
9906;SDS011;4992;51.628;6.664;2023-07-20T06:42:37;2.13;;;2.03;;
9906;SDS011;4992;51.628;6.664;2023-07-20T06:45:03;2.75;;;2.42;;
9906;SDS011;4992;51.628;6.664;2023-07-20T06:47:29;2.17;;;2.08;;
9906;SDS011;4992;51.628;6.664;2023-07-20T06:49:55;2.08;;;1.98;;
9906;SDS011;4992;51.628;6.664;2023-07-20T06:52:21;2.25;;;2.15;;
9906;SDS011;4992;51.628;6.664;2023-07-20T06:54:47;2.70;;;2.35;;
9906;SDS011;4992;51.628;6.664;2023-07-20T06:57:13;1.90;;;1.80;;
9906;SDS011;4992;51.628;6.664;2023-07-20T06:59:39;2.03;;;1.92;;
9906;SDS011;4992;51.628;6.664;2023-07-20T07:02:05;2.00;;;1.90;;
9906;SDS011;4992;51.628;6.664;2023-07-20T07:04:31;1.40;;;1.30;;
9906;SDS011;4992;51.628;6.664;2023-07-20T07:06:57;1.95;;;1.85;;
9906;SDS011;4992;51.628;6.664;2023-07-20T07:09:23;1.48;;;1.38;;
9906;SDS011;4992;51.628;6.664;2023-07-20T07:11:49;1.65;;;1.55;;
9906;SDS011;4992;51.628;6.664;2023-07-20T07:14:15;1.70;;;1.60;;
9906;SDS011;4992;51.628;6.664;2023-07-20T07:16:41;1.85;;;1.50;;
9906;SDS011;4992;51.628;6.664;2023-07-20T07:19:07;1.02;;;1.02;;
9906;SDS011;4992;51.628;6.664;2023-07-20T07:21:33;1.50;;;1.40;;
9906;SDS011;4992;51.628;6.664;2023-07-20T07:23:59;3.35;;;0.95;;
9906;SDS011;4992;51.628;6.664;2023-07-20T07:26:25;1.65;;;1.10;;
9906;SDS011;4992;51.628;6.664;2023-07-20T07:28:51;2.67;;;1.52;;
9906;SDS011;4992;51.628;6.664;2023-07-20T07:31:17;2.28;;;0.93;;
9906;SDS011;4992;51.628;6.664;2023-07-20T07:33:43;1.23;;;1.00;;
9906;SDS011;4992;51.628;6.664;2023-07-20T07:36:09;0.63;;;0.63;;
9906;SDS011;4992;51.628;6.664;2023-07-20T07:38:35;0.65;;;0.52;;
9906;SDS011;4992;51.628;6.664;2023-07-20T07:41:02;0.70;;;0.70;;
9906;SDS011;4992;51.628;6.664;2023-07-20T07:43:28;1.58;;;0.68;;
9906;SDS011;4992;51.628;6.664;2023-07-20T07:45:54;0.80;;;0.80;;
9906;SDS011;4992;51.628;6.664;2023-07-20T07:48:20;0.50;;;0.50;;
9906;SDS011;4992;51.628;6.664;2023-07-20T07:50:47;0.55;;;0.55;;
9906;SDS011;4992;51.628;6.664;2023-07-20T07:53:13;1.08;;;0.70;;
9906;SDS011;4992;51.628;6.664;2023-07-20T07:55:39;0.85;;;0.40;;
9906;SDS011;4992;51.628;6.664;2023-07-20T07:58:06;0.93;;;0.50;;
9906;SDS011;4992;51.628;6.664;2023-07-20T08:00:32;0.43;;;0.40;;
9906;SDS011;4992;51.628;6.664;2023-07-20T08:02:58;1.25;;;0.47;;
9906;SDS011;4992;51.628;6.664;2023-07-20T08:05:24;0.63;;;0.50;;
9906;SDS011;4992;51.628;6.664;2023-07-20T08:07:51;0.90;;;0.52;;
9906;SDS011;4992;51.628;6.664;2023-07-20T08:10:17;0.77;;;0.50;;
9906;SDS011;4992;51.628;6.664;2023-07-20T08:12:43;1.70;;;0.60;;
9906;SDS011;4992;51.628;6.664;2023-07-20T08:15:10;0.50;;;0.50;;
9906;SDS011;4992;51.628;6.664;2023-07-20T08:17:39;2.30;;;0.60;;
9906;SDS011;4992;51.628;6.664;2023-07-20T08:20:05;0.30;;;0.30;;
9906;SDS011;4992;51.628;6.664;2023-07-20T08:22:31;0.55;;;0.30;;
9906;SDS011;4992;51.628;6.664;2023-07-20T08:24:57;0.30;;;0.30;;
9906;SDS011;4992;51.628;6.664;2023-07-20T08:27:23;0.50;;;0.35;;
9906;SDS011;4992;51.628;6.664;2023-07-20T08:29:49;1.58;;;0.40;;
9906;SDS011;4992;51.628;6.664;2023-07-20T08:32:15;4.13;;;0.70;;
9906;SDS011;4992;51.628;6.664;2023-07-20T08:34:41;0.52;;;0.50;;
9906;SDS011;4992;51.628;6.664;2023-07-20T08:37:07;0.30;;;0.30;;
9906;SDS011;4992;51.628;6.664;2023-07-20T08:39:35;1.02;;;0.38;;
9906;SDS011;4992;51.628;6.664;2023-07-20T08:42:01;2.05;;;0.38;;
9906;SDS011;4992;51.628;6.664;2023-07-20T08:44:32;0.65;;;0.30;;
9906;SDS011;4992;51.628;6.664;2023-07-20T08:46:59;0.55;;;0.30;;
9906;SDS011;4992;51.628;6.664;2023-07-20T08:49:25;1.08;;;0.40;;
9906;SDS011;4992;51.628;6.664;2023-07-20T08:51:51;0.43;;;0.43;;
9906;SDS011;4992;51.628;6.664;2023-07-20T08:54:18;1.15;;;0.40;;
9906;SDS011;4992;51.628;6.664;2023-07-20T08:56:45;1.58;;;0.40;;
9906;SDS011;4992;51.628;6.664;2023-07-20T08:59:12;1.38;;;0.32;;
9906;SDS011;4992;51.628;6.664;2023-07-20T09:01:39;3.47;;;0.40;;
9906;SDS011;4992;51.628;6.664;2023-07-20T09:04:06;0.70;;;0.50;;
9906;SDS011;4992;51.628;6.664;2023-07-20T09:06:32;1.13;;;0.70;;
9906;SDS011;4992;51.628;6.664;2023-07-20T09:08:59;1.55;;;0.95;;
9906;SDS011;4992;51.628;6.664;2023-07-20T09:11:26;1.52;;;0.30;;
9906;SDS011;4992;51.628;6.664;2023-07-20T09:14:08;0.40;;;0.30;;
9906;SDS011;4992;51.628;6.664;2023-07-20T09:16:48;0.47;;;0.30;;
9906;SDS011;4992;51.628;6.664;2023-07-20T09:19:17;0.55;;;0.52;;
9906;SDS011;4992;51.628;6.664;2023-07-20T09:21:49;0.43;;;0.43;;
9906;SDS011;4992;51.628;6.664;2023-07-20T09:24:17;2.58;;;0.32;;
9906;SDS011;4992;51.628;6.664;2023-07-20T09:26:43;1.75;;;0.50;;
9906;SDS011;4992;51.628;6.664;2023-07-20T09:29:10;0.98;;;0.30;;
9906;SDS011;4992;51.628;6.664;2023-07-20T09:31:36;0.95;;;0.50;;
9906;SDS011;4992;51.628;6.664;2023-07-20T09:34:04;0.70;;;0.55;;
9906;SDS011;4992;51.628;6.664;2023-07-20T09:36:32;0.30;;;0.30;;
9906;SDS011;4992;51.628;6.664;2023-07-20T09:38:59;0.43;;;0.25;;
9906;SDS011;4992;51.628;6.664;2023-07-20T09:41:25;1.50;;;0.57;;
9906;SDS011;4992;51.628;6.664;2023-07-20T09:43:51;0.43;;;0.20;;
9906;SDS011;4992;51.628;6.664;2023-07-20T09:46:18;1.25;;;0.35;;
9906;SDS011;4992;51.628;6.664;2023-07-20T09:48:51;0.75;;;0.32;;
9906;SDS011;4992;51.628;6.664;2023-07-20T09:51:22;0.40;;;0.40;;
9906;SDS011;4992;51.628;6.664;2023-07-20T09:53:48;0.85;;;0.30;;
9906;SDS011;4992;51.628;6.664;2023-07-20T09:56:15;0.75;;;0.30;;
9906;SDS011;4992;51.628;6.664;2023-07-20T09:58:43;0.47;;;0.20;;
9906;SDS011;4992;51.628;6.664;2023-07-20T10:01:09;0.30;;;0.20;;
9906;SDS011;4992;51.628;6.664;2023-07-20T10:03:39;0.45;;;0.20;;
9906;SDS011;4992;51.628;6.664;2023-07-20T10:06:05;0.22;;;0.22;;
9906;SDS011;4992;51.628;6.664;2023-07-20T10:08:32;0.35;;;0.32;;
9906;SDS011;4992;51.628;6.664;2023-07-20T10:10:59;0.38;;;0.38;;
9906;SDS011;4992;51.628;6.664;2023-07-20T10:13:26;0.17;;;0.10;;
9906;SDS011;4992;51.628;6.664;2023-07-20T10:16:01;1.05;;;0.17;;
9906;SDS011;4992;51.628;6.664;2023-07-20T10:18:47;0.32;;;0.17;;
9906;SDS011;4992;51.628;6.664;2023-07-20T10:21:16;0.20;;;0.20;;
9906;SDS011;4992;51.628;6.664;2023-07-20T10:23:43;0.30;;;0.20;;
9906;SDS011;4992;51.628;6.664;2023-07-20T10:26:10;0.63;;;0.22;;
9906;SDS011;4992;51.628;6.664;2023-07-20T10:28:37;0.50;;;0.30;;
9906;SDS011;4992;51.628;6.664;2023-07-20T10:31:04;0.90;;;0.35;;
9906;SDS011;4992;51.628;6.664;2023-07-20T10:33:30;0.30;;;0.30;;
9906;SDS011;4992;51.628;6.664;2023-07-20T10:35:58;0.30;;;0.20;;
9906;SDS011;4992;51.628;6.664;2023-07-20T10:43:49;0.25;;;0.25;;
9906;SDS011;4992;51.628;6.664;2023-07-20T10:46:33;0.65;;;0.20;;
9906;SDS011;4992;51.628;6.664;2023-07-20T10:48:59;1.27;;;0.35;;
9906;SDS011;4992;51.628;6.664;2023-07-20T10:51:29;1.05;;;0.20;;
9906;SDS011;4992;51.628;6.664;2023-07-20T10:53:58;0.20;;;0.20;;
9906;SDS011;4992;51.628;6.664;2023-07-20T10:56:27;1.95;;;0.30;;
9906;SDS011;4992;51.628;6.664;2023-07-20T10:58:57;1.63;;;0.40;;
9906;SDS011;4992;51.628;6.664;2023-07-20T11:01:27;0.20;;;0.20;;
9906;SDS011;4992;51.628;6.664;2023-07-20T11:03:56;0.55;;;0.30;;
9906;SDS011;4992;51.628;6.664;2023-07-20T11:08:55;1.00;;;0.30;;
9906;SDS011;4992;51.628;6.664;2023-07-20T11:11:29;0.70;;;0.30;;
9906;SDS011;4992;51.628;6.664;2023-07-20T11:19:18;0.55;;;0.40;;
9906;SDS011;4992;51.628;6.664;2023-07-20T11:21:46;0.40;;;0.40;;
9906;SDS011;4992;51.628;6.664;2023-07-20T11:24:12;0.55;;;0.30;;
9906;SDS011;4992;51.628;6.664;2023-07-20T11:26:51;0.47;;;0.30;;
9906;SDS011;4992;51.628;6.664;2023-07-20T11:29:17;0.43;;;0.30;;
9906;SDS011;4992;51.628;6.664;2023-07-20T11:31:44;0.45;;;0.40;;
9906;SDS011;4992;51.628;6.664;2023-07-20T11:34:11;1.63;;;0.30;;
9906;SDS011;4992;51.628;6.664;2023-07-20T11:36:40;0.82;;;0.20;;
9906;SDS011;4992;51.628;6.664;2023-07-20T11:39:08;0.30;;;0.30;;
9906;SDS011;4992;51.628;6.664;2023-07-20T11:41:34;0.20;;;0.17;;
9906;SDS011;4992;51.628;6.664;2023-07-20T11:44:00;1.42;;;0.20;;
9906;SDS011;4992;51.628;6.664;2023-07-20T11:46:27;0.50;;;0.20;;
9906;SDS011;4992;51.628;6.664;2023-07-20T11:48:57;0.20;;;0.20;;
9906;SDS011;4992;51.628;6.664;2023-07-20T11:51:23;0.73;;;0.30;;
9906;SDS011;4992;51.628;6.664;2023-07-20T11:53:49;0.28;;;0.10;;
9906;SDS011;4992;51.628;6.664;2023-07-20T11:56:15;1.23;;;0.28;;
9906;SDS011;4992;51.628;6.664;2023-07-20T11:58:43;0.20;;;0.20;;
9906;SDS011;4992;51.628;6.664;2023-07-20T12:01:09;0.93;;;0.10;;
9906;SDS011;4992;51.628;6.664;2023-07-20T12:03:36;0.20;;;0.20;;
9906;SDS011;4992;51.628;6.664;2023-07-20T12:06:13;0.30;;;0.30;;
9906;SDS011;4992;51.628;6.664;2023-07-20T12:08:40;0.70;;;0.22;;
9906;SDS011;4992;51.628;6.664;2023-07-20T12:11:06;0.82;;;0.40;;
9906;SDS011;4992;51.628;6.664;2023-07-20T12:13:50;1.25;;;0.28;;
9906;SDS011;4992;51.628;6.664;2023-07-20T12:16:16;0.70;;;0.45;;
9906;SDS011;4992;51.628;6.664;2023-07-20T12:18:42;1.55;;;0.38;;
9906;SDS011;4992;51.628;6.664;2023-07-20T12:21:09;0.40;;;0.30;;
9906;SDS011;4992;51.628;6.664;2023-07-20T12:23:35;0.75;;;0.20;;
9906;SDS011;4992;51.628;6.664;2023-07-20T12:26:02;0.20;;;0.20;;
9906;SDS011;4992;51.628;6.664;2023-07-20T12:28:28;0.50;;;0.20;;
9906;SDS011;4992;51.628;6.664;2023-07-20T12:30:55;1.92;;;0.20;;
9906;SDS011;4992;51.628;6.664;2023-07-20T12:33:24;0.85;;;0.30;;
9906;SDS011;4992;51.628;6.664;2023-07-20T12:35:50;1.02;;;0.40;;
9906;SDS011;4992;51.628;6.664;2023-07-20T12:38:20;0.30;;;0.30;;
9906;SDS011;4992;51.628;6.664;2023-07-20T12:40:46;1.00;;;0.20;;
9906;SDS011;4992;51.628;6.664;2023-07-20T12:43:12;0.68;;;0.30;;
9906;SDS011;4992;51.628;6.664;2023-07-20T12:45:38;1.77;;;0.30;;
9906;SDS011;4992;51.628;6.664;2023-07-20T12:48:05;1.88;;;0.68;;
9906;SDS011;4992;51.628;6.664;2023-07-20T12:50:31;0.60;;;0.40;;
9906;SDS011;4992;51.628;6.664;2023-07-20T12:52:57;0.55;;;0.32;;
9906;SDS011;4992;51.628;6.664;2023-07-20T12:55:23;1.70;;;0.38;;
9906;SDS011;4992;51.628;6.664;2023-07-20T12:57:49;0.77;;;0.20;;
9906;SDS011;4992;51.628;6.664;2023-07-20T13:00:15;0.40;;;0.32;;
9906;SDS011;4992;51.628;6.664;2023-07-20T13:02:42;0.85;;;0.30;;
9906;SDS011;4992;51.628;6.664;2023-07-20T13:05:08;1.25;;;0.40;;
9906;SDS011;4992;51.628;6.664;2023-07-20T13:07:35;0.63;;;0.30;;
9906;SDS011;4992;51.628;6.664;2023-07-20T13:10:02;0.40;;;0.30;;
9906;SDS011;4992;51.628;6.664;2023-07-20T13:12:29;0.32;;;0.32;;
9906;SDS011;4992;51.628;6.664;2023-07-20T13:14:55;0.28;;;0.20;;
9906;SDS011;4992;51.628;6.664;2023-07-20T13:17:24;0.85;;;0.20;;
9906;SDS011;4992;51.628;6.664;2023-07-20T13:19:50;0.60;;;0.20;;
9906;SDS011;4992;51.628;6.664;2023-07-20T13:22:16;0.77;;;0.40;;
9906;SDS011;4992;51.628;6.664;2023-07-20T13:24:44;0.30;;;0.30;;
9906;SDS011;4992;51.628;6.664;2023-07-20T13:27:11;1.17;;;0.40;;
9906;SDS011;4992;51.628;6.664;2023-07-20T13:29:37;0.30;;;0.30;;
9906;SDS011;4992;51.628;6.664;2023-07-20T13:32:03;0.63;;;0.30;;
9906;SDS011;4992;51.628;6.664;2023-07-20T13:34:31;0.30;;;0.30;;
9906;SDS011;4992;51.628;6.664;2023-07-20T13:36:57;0.47;;;0.30;;
9906;SDS011;4992;51.628;6.664;2023-07-20T13:39:23;0.93;;;0.38;;
9906;SDS011;4992;51.628;6.664;2023-07-20T13:41:51;1.00;;;0.90;;
9906;SDS011;4992;51.628;6.664;2023-07-20T13:44:18;1.00;;;0.90;;
9906;SDS011;4992;51.628;6.664;2023-07-20T13:46:45;0.80;;;0.60;;
9906;SDS011;4992;51.628;6.664;2023-07-20T13:49:11;1.85;;;0.52;;
9906;SDS011;4992;51.628;6.664;2023-07-20T13:51:37;0.43;;;0.40;;
9906;SDS011;4992;51.628;6.664;2023-07-20T13:54:03;0.22;;;0.22;;
9906;SDS011;4992;51.628;6.664;2023-07-20T13:56:29;0.75;;;0.30;;
9906;SDS011;4992;51.628;6.664;2023-07-20T13:58:56;0.60;;;0.30;;
9906;SDS011;4992;51.628;6.664;2023-07-20T14:01:22;2.88;;;0.40;;
9906;SDS011;4992;51.628;6.664;2023-07-20T14:03:49;3.53;;;0.55;;
9906;SDS011;4992;51.628;6.664;2023-07-20T14:06:15;10.38;;;0.90;;
9906;SDS011;4992;51.628;6.664;2023-07-20T14:08:42;2.13;;;0.35;;
9906;SDS011;4992;51.628;6.664;2023-07-20T14:11:11;1.45;;;0.30;;
9906;SDS011;4992;51.628;6.664;2023-07-20T14:13:37;10.20;;;0.55;;
9906;SDS011;4992;51.628;6.664;2023-07-20T14:16:03;1.10;;;0.20;;
9906;SDS011;4992;51.628;6.664;2023-07-20T14:18:29;0.30;;;0.30;;
9906;SDS011;4992;51.628;6.664;2023-07-20T14:20:55;1.75;;;0.30;;
9906;SDS011;4992;51.628;6.664;2023-07-20T14:23:21;20.08;;;1.73;;
9906;SDS011;4992;51.628;6.664;2023-07-20T14:25:47;1.38;;;0.30;;
9906;SDS011;4992;51.628;6.664;2023-07-20T14:28:13;1.98;;;0.40;;
9906;SDS011;4992;51.628;6.664;2023-07-20T14:30:39;1.00;;;0.30;;
9906;SDS011;4992;51.628;6.664;2023-07-20T14:33:05;0.28;;;0.28;;
9906;SDS011;4992;51.628;6.664;2023-07-20T14:35:31;0.73;;;0.40;;
9906;SDS011;4992;51.628;6.664;2023-07-20T14:37:57;10.73;;;4.03;;
9906;SDS011;4992;51.628;6.664;2023-07-20T14:40:23;12.02;;;3.53;;
9906;SDS011;4992;51.628;6.664;2023-07-20T14:42:49;3.88;;;1.38;;
9906;SDS011;4992;51.628;6.664;2023-07-20T14:45:16;0.68;;;0.38;;
9906;SDS011;4992;51.628;6.664;2023-07-20T14:47:42;1.08;;;0.40;;
9906;SDS011;4992;51.628;6.664;2023-07-20T14:50:08;1.75;;;0.63;;
9906;SDS011;4992;51.628;6.664;2023-07-20T14:52:35;1.08;;;0.43;;
9906;SDS011;4992;51.628;6.664;2023-07-20T14:55:01;0.98;;;0.35;;
9906;SDS011;4992;51.628;6.664;2023-07-20T14:57:27;2.53;;;0.50;;
9906;SDS011;4992;51.628;6.664;2023-07-20T14:59:53;0.65;;;0.40;;
9906;SDS011;4992;51.628;6.664;2023-07-20T15:02:19;0.50;;;0.38;;
9906;SDS011;4992;51.628;6.664;2023-07-20T15:04:45;0.40;;;0.40;;
9906;SDS011;4992;51.628;6.664;2023-07-20T15:07:12;0.75;;;0.40;;
9906;SDS011;4992;51.628;6.664;2023-07-20T15:09:38;0.28;;;0.28;;
9906;SDS011;4992;51.628;6.664;2023-07-20T15:12:04;0.60;;;0.40;;
9906;SDS011;4992;51.628;6.664;2023-07-20T15:14:30;1.15;;;0.40;;
9906;SDS011;4992;51.628;6.664;2023-07-20T15:16:56;1.70;;;0.30;;
9906;SDS011;4992;51.628;6.664;2023-07-20T15:19:22;0.93;;;0.40;;
9906;SDS011;4992;51.628;6.664;2023-07-20T15:21:48;0.57;;;0.40;;
9906;SDS011;4992;51.628;6.664;2023-07-20T15:24:14;0.52;;;0.40;;
9906;SDS011;4992;51.628;6.664;2023-07-20T15:26:40;1.02;;;0.43;;
9906;SDS011;4992;51.628;6.664;2023-07-20T15:29:06;1.80;;;0.40;;
9906;SDS011;4992;51.628;6.664;2023-07-20T15:31:33;0.80;;;0.40;;
9906;SDS011;4992;51.628;6.664;2023-07-20T15:34:01;0.38;;;0.38;;
9906;SDS011;4992;51.628;6.664;2023-07-20T15:36:27;0.77;;;0.40;;
9906;SDS011;4992;51.628;6.664;2023-07-20T15:38:52;1.80;;;0.40;;